Flight Track Log - Related Links

Times and Time Zones

All times are in EDT time to prevent confusion due to time zone crossing. See the SWA2236 flight status page for this flight to view local times or setup timezone preferences in your user account.

Time Position Orientation Groundspeed Altitude Reporting Facility
EDT Latitude Longitude Course Direction KTS MPH feet Rate Location/Type
Wed 10:36:07 PM 39.1270 -76.5930 90° East 253 291 2,600  Level FlightAware ADS-B
Wed 10:36:45 PM 39.1330 -76.5280 83° East 283 326 4,100 2,571 Climbing FlightAware ADS-B
Wed 10:37:10 PM 39.1350 -76.4860 86° East 285 328 5,300 3,231 Climbing FlightAware ADS-B
Wed 10:37:37 PM 39.1380 -76.4390 85° East 294 338 6,900 3,684 Climbing FlightAware ADS-B
Wed 10:38:07 PM 39.1420 -76.3850 85° East 298 343 8,800 3,382 Climbing FlightAware ADS-B
Wed 10:38:32 PM 39.1450 -76.3400 85° East 314 361 10,000 3,171 Climbing FlightAware ADS-B
Wed 10:39:17 PM 39.1500 -76.2560 86° East 319 367 12,500 3,200 Climbing FlightAware ADS-B
Wed 10:40:02 PM 39.1580 -76.1710 83° East 332 382 14,800 3,035 Climbing FlightAware ADS-B
Wed 10:40:42 PM 39.1670 -76.0910 82° East 341 392 16,800 2,880 Climbing FlightAware ADS-B
Wed 10:41:17 PM 39.1750 -76.0220 81° East 348 400 18,400 2,571 Climbing FlightAware ADS-B
Wed 10:41:59 PM 39.1860 -75.9300 81° East 366 421 20,100 1,881 Climbing FlightAware ADS-B
Wed 10:42:24 PM 39.2000 -75.8770 71° East 398 458 20,500 1,765 Climbing FlightAware ADS-B
Wed 10:43:07 PM 39.2560 -75.7970 48° Northeast 415 478 22,100 2,231 Climbing FlightAware ADS-B
Wed 10:43:42 PM 39.3040 -75.7350 45° Northeast 429 494 23,400 2,240 Climbing FlightAware ADS-B
Wed 10:44:22 PM 39.3610 -75.6620 45° Northeast 438 504 24,900 2,118 Climbing FlightAware ADS-B
Wed 10:45:07 PM 39.4250 -75.5780 45° Northeast 442 509 26,400 2,241 Climbing FlightAware ADS-B
Wed 10:45:45 PM 39.4790 -75.5080 45° Northeast 435 501 28,000 1,902 Climbing FlightAware ADS-B
Wed 10:46:29 PM 39.5450 -75.4230 45° Northeast 458 527 29,000 690 Climbing FlightAware ADS-B
Wed 10:47:12 PM 39.6090 -75.3390 45° Northeast 468 539 29,000  Level FlightAware ADS-B
Wed 10:47:52 PM 39.6710 -75.2540 47° Northeast 477 549 29,000  Level FlightAware ADS-B
Wed 10:48:27 PM 39.7220 -75.1820 47° Northeast 481 554 29,000  Level FlightAware ADS-B
Wed 10:49:12 PM 39.7920 -75.0830 47° Northeast 480 552 29,000  Level FlightAware ADS-B
Wed 10:49:53 PM 39.8520 -74.9980 47° Northeast 480 552 29,000  Level FlightAware ADS-B
Wed 10:50:28 PM 39.9060 -74.9200 48° Northeast 479 551 29,000  Level FlightAware ADS-B
Wed 10:51:10 PM 39.9690 -74.8310 47° Northeast 482 555 29,000  Level FlightAware ADS-B
Wed 10:51:50 PM 40.0290 -74.7460 47° Northeast 480 552 29,000  Level FlightAware ADS-B
Wed 10:52:35 PM 40.0960 -74.6480 48° Northeast 478 550 29,000  Level FlightAware ADS-B
Wed 10:53:15 PM 40.1550 -74.5640 47° Northeast 477 549 29,000  Level FlightAware ADS-B
Wed 10:54:01 PM 40.2240 -74.4720 45° Northeast 477 549 29,000  Level FlightAware ADS-B
Wed 10:54:41 PM 40.2950 -74.3960 39° Northeast 476 548 29,000  Level FlightAware ADS-B
Wed 10:55:23 PM 40.3610 -74.3260 39° Northeast 476 548 29,000  Level FlightAware ADS-B
Wed 10:56:06 PM 40.4410 -74.2400 39° Northeast 475 547 29,000  Level FlightAware ADS-B
Wed 10:56:46 PM 40.5060 -74.1690 40° Northeast 467 537 29,000  Level FlightAware ADS-B
Wed 10:57:27 PM 40.5720 -74.0980 39° Northeast 463 533 29,000 -628 Level FlightAware ADS-B
Wed 10:58:12 PM 40.6470 -74.0170 39° Northeast 445 512 28,100 -2,659 Descending FlightAware ADS-B
Wed 10:58:55 PM 40.7230 -73.9350 39° Northeast 476 548 25,100 -3,237 Descending FlightAware ADS-B
Wed 10:59:28 PM 40.7780 -73.8750 40° Northeast 465 535 24,000 -868 Descending FlightAware ADS-B
Wed 11:00:11 PM 40.8400 -73.8010 42° Northeast 446 513 24,000  Level FlightAware ADS-B
Wed 11:00:46 PM 40.8950 -73.7340 43° Northeast 443 510 24,000 -152 Level FlightAware ADS-B
Wed 11:01:30 PM 40.9630 -73.6510 43° Northeast 452 520 23,800 -651 Descending FlightAware ADS-B
Wed 11:02:09 PM 41.0340 -73.5970 30° Northeast 445 512 23,100 -727 Descending FlightAware ADS-B
Wed 11:02:36 PM 41.0920 -73.5900 North 432 497 23,000 -174 Descending FlightAware ADS-B
Wed 11:03:18 PM 41.1760 -73.5980 356° North 431 496 22,900 -565 Descending FlightAware ADS-B
Wed 11:04:01 PM 41.2580 -73.6080 355° North 426 490 22,200 -977 Descending FlightAware ADS-B
Wed 11:04:44 PM 41.3450 -73.6190 355° North 417 480 21,500 -1,059 Descending FlightAware ADS-B
Wed 11:05:26 PM 41.4250 -73.6280 355° North 410 472 20,700 -1,047 Descending FlightAware ADS-B
Wed 11:06:10 PM 41.5080 -73.6390 354° North 405 466 20,000 -975 Descending FlightAware ADS-B
Wed 11:06:46 PM 41.5730 -73.6480 354° North 400 460 19,400 -978 Descending FlightAware ADS-B
Wed 11:07:42 PM 41.6750 -73.6610 355° North 392 451 18,500 -989 Descending FlightAware ADS-B
Wed 11:08:17 PM 41.7370 -73.6690 355° North 388 447 17,900 -1,000 Descending FlightAware ADS-B
Wed 11:09:06 PM 41.8260 -73.6810 354° North 381 438 17,100 -1,366 Descending FlightAware ADS-B
Wed 11:09:58 PM 41.9160 -73.6920 355° North 369 425 15,600 -1,800 Descending FlightAware ADS-B
Wed 11:10:36 PM 41.9800 -73.7010 354° North 363 418 14,400 -1,909 Descending FlightAware ADS-B
Wed 11:11:26 PM 42.0570 -73.7110 354° North 355 409 12,800 -2,023 Descending FlightAware ADS-B
Wed 11:12:02 PM 42.1210 -73.7200 354° North 350 403 11,500 -1,040 Descending FlightAware ADS-B
Wed 11:12:41 PM 42.1740 -73.7270 354° North 350 403 11,500  Level FlightAware ADS-B
Wed 11:13:29 PM 42.2400 -73.7360 354° North 350 403 11,500 -1,096 Level FlightAware ADS-B
Wed 11:14:25 PM 42.3289 -73.7011 354° North 299 344 9,600 -1,707 Descending Boston Center
Wed 11:15:25 PM 42.4103 -73.6803 11° North 293 337 8,200 -1,388 Descending Boston Center
Wed 11:16:26 PM 42.4894 -73.6844 358° North 282 325 6,800 -1,426 Descending Boston Center
Wed 11:17:27 PM 42.5728 -73.6861 359° North 280 322 5,300 -1,438 Descending Boston Center
Wed 11:18:27 PM 42.6500 -73.6878 359° North 275 316 3,900 -1,289 Descending Boston Center
Wed 11:19:28 PM 42.7250 -73.6922 358° North 269 310 2,700 -595 Descending Boston Center
Wed 11:20:28 PM 42.7894 -73.6933 359° North 231 266 2,700  Level Boston Center
Wed 11:21:29 PM 42.8542 -73.6947 359° North 224 258 2,700 -344 Level Boston Center
Wed 11:22:30 PM 42.8658 -73.7686 282° West 205 236 2,000 -689 Descending Boston Center

Login

Don't have an account? Register now (free) for customized features, flight alerts, and more!